Airfield :
LOGIN :

Register | Disclaimer

   EN    FR    IT 

 










Legend :    VFR   Marginal VFR   IFR   Intensive IFR   Very Intensive IFR
Visi :
Ceiling :
>= 8 km
>= 3000ft
5 to 8 km
1000 to 3000 ft
1500m to 5 km
500 to 1000 ft
800 to 1500m
200 to 500 ft
< 800m
< 200 ft
Symbols :   Thunderstorms  Fog  Heavy snow  Heavy precipitations  Wind > 20 kt
SIGMETs :     Misc.  Thunderstorms  Icing  Turbulence  Mountain Waves  Volcanic Ashes







- Airport Elevation : 659 ft
- IATA code : LGG


EBLG - Liège

CURRENT METAR :
  • 171650Z 19010KT 9999 FEW010 SCT017 19/16 Q1016 NOSIG

EXPIRED METARs :
  • 171620Z 20011KT 9999 FEW010 BKN017 19/16 Q1016 NOSIG
  • 171550Z 20011KT 9999 FEW010 BKN020 19/16 Q1016 NOSIG
  • 171520Z 21011KT 9999 -RA FEW010 BKN020 19/16 Q1016 NOSIG
  • 171450Z 22014KT 9999 FEW015 BKN022 19/15 Q1016 NOSIG
  • 171420Z 22014KT 9999 FEW015 BKN022 19/16 Q1016 NOSIG

TAF COR TAF EBLG
Valid from the 17 at 12:00 until the 18 at 18:00 UTC


171218Z 1712/1818 20007KT 9999 SCT015 BKN030
TEMPO 1714/1719 BKN007
TEMPO 1716/1719 4000 SHRA SCT010 BKN014CB
TEMPO 1804/1813 3000 RA SHRA SCT007 BKN013
No reported NOTAMs for that airfield.



MET'MAP, your aeronautical weather chart ! - Copyright ORBIFLY December 2007 - Disclaimer

ORBIFLY MET'MAP TEAM :

Programming & Development : Alexandra Zaïnal
Concept & Development : Baudouin d'Aumeries
Co-Development & Prog : Marc-Olivier Méhu
Technical & hardware support : Manuel Goepfert

Contact : metmap@orbifly.com




SOURCES & CREDITS :

   NOAA